createdAt,value
2023-05-14T00:01:12.052Z,3.33
2023-05-14T00:04:13.817Z,3.00
2023-05-14T00:07:15.418Z,3.05
2023-05-14T00:10:19.095Z,3.50
2023-05-14T00:13:20.686Z,3.63
2023-05-14T00:16:22.293Z,3.70
2023-05-14T00:19:23.871Z,3.63
2023-05-14T00:22:25.552Z,3.50
2023-05-14T00:25:27.246Z,3.40
2023-05-14T00:28:28.780Z,3.30
2023-05-14T00:31:30.587Z,3.20
2023-05-14T00:34:32.172Z,3.30
2023-05-14T00:37:33.751Z,3.72
2023-05-14T00:40:35.517Z,3.47
2023-05-14T00:43:37.090Z,3.58
2023-05-14T00:46:38.714Z,3.72
2023-05-14T00:49:41.182Z,3.85
2023-05-14T00:52:43.197Z,3.90
2023-05-14T00:55:46.755Z,3.72
2023-05-14T00:58:48.378Z,3.80
2023-05-14T01:01:49.999Z,3.75
2023-05-14T01:04:53.370Z,3.50
2023-05-14T01:08:07.689Z,3.70
2023-05-14T01:11:42.201Z,3.88
2023-05-14T01:15:11.857Z,3.80
2023-05-14T01:18:14.471Z,3.72
2023-05-14T01:21:25.324Z,4.22
2023-05-14T01:24:27.075Z,3.63
2023-05-14T01:27:35.819Z,4.35
2023-05-14T01:30:48.841Z,3.72
2023-05-14T01:33:51.894Z,3.50
2023-05-14T01:36:56.456Z,4.10
2023-05-14T01:39:59.067Z,3.97
2023-05-14T01:43:01.255Z,3.40
2023-05-14T01:46:04.871Z,4.00
2023-05-14T01:49:06.699Z,4.18
2023-05-14T01:52:08.540Z,4.25
2023-05-14T01:55:10.986Z,4.22
2023-05-14T01:58:12.643Z,3.75
2023-05-14T02:01:14.220Z,3.17
2023-05-14T02:04:15.964Z,3.30
2023-05-14T02:07:17.653Z,3.10
2023-05-14T02:10:21.114Z,3.17
2023-05-14T02:13:26.137Z,3.47
2023-05-14T02:16:27.815Z,3.35
2023-05-14T02:19:30.086Z,3.22
2023-05-14T02:22:31.905Z,3.22
2023-05-14T02:25:33.624Z,3.72
2023-05-14T02:28:35.229Z,3.58
2023-05-14T02:31:37.138Z,3.78
2023-05-14T02:34:38.801Z,3.72
2023-05-14T02:37:40.334Z,3.15
2023-05-14T02:40:41.999Z,3.47
2023-05-14T02:43:43.589Z,3.25
2023-05-14T02:46:45.180Z,3.47
2023-05-14T02:49:46.828Z,3.28
2023-05-14T02:52:48.439Z,3.30
2023-05-14T02:55:50.031Z,2.90
2023-05-14T02:58:51.596Z,3.10
2023-05-14T03:01:53.461Z,3.60
2023-05-14T03:04:55.538Z,3.10
2023-05-14T03:07:57.174Z,2.72
2023-05-14T03:10:58.779Z,3.00
2023-05-14T03:14:00.412Z,2.90
2023-05-14T03:17:02.494Z,3.10
2023-05-14T03:20:04.489Z,3.00
2023-05-14T03:23:06.318Z,3.03
2023-05-14T03:26:08.347Z,2.97
2023-05-14T03:29:10.859Z,3.30
2023-05-14T03:32:12.545Z,3.42
2023-05-14T03:35:14.272Z,3.20
2023-05-14T03:38:15.865Z,3.30
2023-05-14T03:41:18.999Z,3.40
2023-05-14T03:44:20.547Z,3.80
2023-05-14T03:47:22.446Z,3.10
2023-05-14T03:50:25.715Z,3.13
2023-05-14T03:53:27.408Z,3.35
2023-05-14T03:56:28.980Z,3.65
2023-05-14T03:59:30.500Z,3.25
2023-05-14T04:02:32.345Z,3.15
2023-05-14T04:05:35.026Z,3.75
2023-05-14T04:08:36.708Z,3.50
2023-05-14T04:11:38.444Z,3.78
2023-05-14T04:14:40.246Z,4.05
2023-05-14T04:17:42.523Z,3.97
2023-05-14T04:20:44.132Z,4.70
2023-05-14T04:23:45.743Z,4.22
2023-05-14T04:26:47.274Z,4.00
2023-05-14T04:29:49.798Z,4.40
2023-05-14T04:32:51.660Z,4.70
2023-05-14T04:35:53.490Z,4.55
2023-05-14T04:38:55.033Z,4.15
2023-05-14T04:41:56.637Z,4.75
2023-05-14T04:44:58.708Z,4.40
2023-05-14T04:48:00.455Z,4.65
2023-05-14T04:51:02.087Z,4.10
2023-05-14T04:54:03.715Z,4.50
2023-05-14T04:57:05.381Z,4.43
2023-05-14T05:00:09.589Z,4.78
2023-05-14T05:03:11.188Z,4.75
2023-05-14T05:06:12.886Z,4.35
2023-05-14T05:09:14.573Z,4.35
2023-05-14T05:12:16.192Z,4.60
2023-05-14T05:15:17.837Z,4.82
2023-05-14T05:18:19.557Z,5.13
2023-05-14T05:21:21.234Z,4.70
2023-05-14T05:24:22.795Z,4.57
2023-05-14T05:27:24.440Z,4.85
2023-05-14T05:30:26.330Z,4.68
2023-05-14T05:33:27.995Z,5.13
2023-05-14T05:36:29.622Z,5.50
2023-05-14T05:39:34.710Z,5.72
2023-05-14T05:42:36.439Z,5.15
2023-05-14T05:45:37.969Z,4.90
2023-05-14T05:48:39.520Z,5.35
2023-05-14T05:51:41.054Z,6.80
2023-05-14T05:54:42.583Z,6.75
2023-05-14T05:57:44.174Z,5.55
2023-05-14T06:00:47.095Z,6.28
2023-05-14T06:03:48.771Z,5.80
2023-05-14T06:06:50.493Z,5.82
2023-05-14T06:09:52.042Z,5.40
2023-05-14T06:12:53.577Z,4.97
2023-05-14T06:15:55.235Z,5.30
2023-05-14T06:18:57.859Z,4.75
2023-05-14T06:21:59.653Z,5.40
2023-05-14T06:25:01.259Z,5.25
2023-05-14T06:28:02.918Z,5.38
2023-05-14T06:31:04.498Z,5.78
2023-05-14T06:34:06.126Z,5.93
2023-05-14T06:37:08.038Z,5.32
2023-05-14T06:40:10.783Z,6.95
2023-05-14T06:43:12.377Z,6.10
2023-05-14T06:46:13.936Z,6.43
2023-05-14T06:49:15.542Z,6.70
2023-05-14T06:52:17.155Z,6.40
2023-05-14T06:55:18.921Z,6.72
2023-05-14T06:58:20.530Z,6.22
2023-05-14T07:01:22.112Z,6.25
2023-05-14T07:04:23.748Z,6.18
2023-05-14T07:07:25.498Z,6.18
2023-05-14T07:10:27.204Z,5.97
2023-05-14T07:13:28.936Z,5.65
2023-05-14T07:16:30.887Z,5.88
2023-05-14T07:19:32.536Z,6.38
2023-05-14T07:22:34.032Z,5.85
2023-05-14T07:25:35.588Z,5.63
2023-05-14T07:28:37.196Z,6.30
2023-05-14T07:31:38.723Z,5.88
2023-05-14T07:34:40.452Z,5.75
2023-05-14T07:37:42.947Z,5.50
2023-05-14T07:40:44.648Z,5.57
2023-05-14T07:43:46.154Z,5.05
2023-05-14T07:46:47.942Z,5.00
2023-05-14T07:49:49.556Z,5.20
2023-05-14T07:52:51.179Z,4.82
2023-05-14T07:55:52.816Z,5.38
2023-05-14T07:58:54.422Z,5.03
2023-05-14T08:01:56.783Z,6.00
2023-05-14T08:04:58.471Z,5.38
2023-05-14T08:08:00.212Z,5.40
2023-05-14T08:11:02.728Z,5.75
2023-05-14T08:14:04.262Z,5.65
2023-05-14T08:17:06.158Z,4.90
2023-05-14T08:20:09.843Z,5.57
2023-05-14T08:23:11.555Z,5.43
2023-05-14T08:26:13.081Z,6.03
2023-05-14T08:29:16.534Z,5.63
2023-05-14T08:32:23.946Z,5.47
2023-05-14T08:35:26.048Z,5.63
2023-05-14T08:38:27.640Z,6.30
2023-05-14T08:41:29.880Z,6.10
2023-05-14T08:44:38.991Z,6.03
2023-05-14T08:47:40.702Z,5.88
2023-05-14T08:50:43.763Z,6.35
2023-05-14T08:53:45.530Z,5.60
2023-05-14T08:56:47.109Z,6.40
2023-05-14T08:59:48.670Z,5.85
2023-05-14T09:02:51.521Z,6.53
2023-05-14T09:05:53.720Z,5.97
2023-05-14T09:08:56.017Z,6.43
2023-05-14T09:11:57.616Z,5.80
2023-05-14T09:14:59.353Z,6.28
2023-05-14T09:18:01.068Z,5.70
2023-05-14T09:21:02.933Z,5.93
2023-05-14T09:24:04.672Z,5.53
2023-05-14T09:27:07.024Z,5.50
2023-05-14T09:30:13.091Z,4.97
2023-05-14T09:36:27.295Z,5.15
2023-05-14T09:39:30.263Z,5.25
2023-05-14T09:42:32.595Z,5.10
2023-05-14T09:45:35.089Z,5.22
2023-05-14T09:48:36.698Z,5.15
2023-05-14T09:51:38.502Z,4.97
2023-05-14T09:54:40.506Z,5.10
2023-05-14T09:57:42.206Z,5.43
2023-05-14T10:00:46.154Z,5.18
2023-05-14T10:03:48.993Z,5.18
2023-05-14T10:06:53.236Z,5.15
2023-05-14T10:09:59.759Z,5.45
2023-05-14T10:13:08.399Z,4.88
2023-05-14T10:16:24.353Z,4.72
2023-05-14T10:19:26.452Z,4.88
2023-05-14T10:22:33.480Z,4.97
2023-05-14T10:25:36.545Z,4.45
2023-05-14T10:28:38.240Z,4.30
2023-05-14T10:32:06.950Z,4.43
2023-05-14T10:35:25.700Z,4.30
2023-05-14T10:38:33.913Z,3.90
2023-05-14T10:41:35.591Z,4.38
2023-05-14T10:44:45.392Z,3.63
2023-05-14T10:47:47.507Z,3.67
2023-05-14T10:50:51.934Z,3.20
2023-05-14T10:53:53.506Z,3.33
2023-05-14T10:56:59.215Z,3.20
2023-05-14T11:00:01.787Z,3.13
2023-05-14T11:03:05.681Z,3.10
2023-05-14T11:06:08.341Z,3.17
2023-05-14T11:09:10.712Z,3.08
2023-05-14T11:12:12.316Z,3.13
2023-05-14T11:15:21.170Z,3.20
2023-05-14T11:18:30.371Z,3.65
2023-05-14T11:21:34.972Z,3.42
2023-05-14T11:24:36.618Z,3.47
2023-05-14T11:27:39.343Z,3.00
2023-05-14T11:30:40.951Z,2.83
2023-05-14T11:33:42.900Z,2.90
2023-05-14T11:36:44.536Z,2.97
2023-05-14T11:39:52.147Z,3.20
2023-05-14T11:42:53.903Z,2.85
2023-05-14T11:45:55.929Z,3.25
2023-05-14T11:48:57.602Z,2.95
2023-05-14T11:52:00.551Z,2.90
2023-05-14T11:55:02.377Z,2.90
2023-05-14T11:58:03.981Z,2.83
2023-05-14T12:01:05.619Z,3.00
2023-05-14T12:04:07.333Z,2.90
2023-05-14T12:07:15.043Z,2.78
2023-05-14T12:10:16.609Z,2.90
2023-05-14T12:13:18.386Z,2.95
2023-05-14T12:16:20.693Z,3.00
2023-05-14T12:19:23.503Z,3.03
2023-05-14T12:22:25.138Z,2.92
2023-05-14T12:25:26.846Z,3.00
2023-05-14T12:28:28.686Z,2.95
2023-05-14T12:31:30.423Z,2.88
2023-05-14T12:34:32.058Z,2.60
2023-05-14T12:37:34.185Z,2.90
2023-05-14T12:40:36.451Z,2.80
2023-05-14T12:43:37.949Z,2.75
2023-05-14T12:46:39.592Z,2.83
2023-05-14T12:49:41.179Z,2.72
2023-05-14T12:52:42.836Z,2.65
2023-05-14T12:55:44.397Z,2.92
2023-05-14T12:58:46.821Z,2.67
2023-05-14T13:01:48.344Z,2.80
2023-05-14T13:04:50.006Z,2.70
2023-05-14T13:07:53.256Z,2.70
2023-05-14T13:10:56.252Z,2.83
2023-05-14T13:13:59.034Z,2.97
2023-05-14T13:17:00.965Z,2.80
2023-05-14T13:20:02.695Z,2.90
2023-05-14T13:23:04.452Z,3.15
2023-05-14T13:26:06.144Z,3.20
2023-05-14T13:29:07.694Z,2.80
2023-05-14T13:32:09.232Z,2.60
2023-05-14T13:35:11.433Z,2.92
2023-05-14T13:38:12.966Z,3.00
2023-05-14T13:41:14.648Z,3.00
2023-05-14T13:44:16.240Z,3.17
2023-05-14T13:47:18.025Z,2.90
2023-05-14T13:50:19.773Z,2.90
2023-05-14T13:53:23.092Z,2.75
2023-05-14T13:56:24.821Z,2.80
2023-05-14T13:59:27.952Z,2.72
2023-05-14T14:02:29.511Z,2.50
2023-05-14T14:05:31.767Z,2.50
2023-05-14T14:08:33.473Z,2.83
2023-05-14T14:11:35.115Z,3.10
2023-05-14T14:14:36.724Z,2.70
2023-05-14T14:17:39.228Z,2.95
2023-05-14T14:20:40.934Z,2.60
2023-05-14T14:23:42.489Z,2.83
2023-05-14T14:26:44.037Z,2.92
2023-05-14T14:29:45.744Z,2.92
2023-05-14T14:32:49.432Z,2.80
2023-05-14T14:35:51.771Z,3.20
2023-05-14T14:38:53.324Z,3.13
2023-05-14T14:41:55.256Z,2.78
2023-05-14T14:44:56.915Z,2.95
2023-05-14T14:48:27.493Z,3.05
2023-05-14T14:51:30.225Z,3.05
2023-05-14T14:54:31.895Z,3.13
2023-05-14T14:57:33.421Z,2.85
2023-05-14T15:00:35.144Z,2.92
2023-05-14T15:03:36.858Z,2.70
2023-05-14T15:06:38.411Z,3.17
2023-05-14T15:09:39.999Z,2.85
2023-05-14T15:12:41.734Z,3.10
2023-05-14T15:15:43.520Z,3.40
2023-05-14T15:18:45.157Z,2.80
2023-05-14T15:21:46.773Z,2.72
2023-05-14T15:24:48.332Z,3.05
2023-05-14T15:27:50.758Z,3.28
2023-05-14T15:30:52.861Z,3.28
2023-05-14T15:33:56.002Z,3.00
2023-05-14T15:36:57.565Z,3.00
2023-05-14T15:39:59.097Z,2.90
2023-05-14T15:43:00.835Z,2.53
2023-05-14T15:46:02.522Z,2.50
2023-05-14T15:49:04.043Z,2.50
2023-05-14T15:52:05.967Z,2.78
2023-05-14T15:55:07.889Z,2.70
2023-05-14T15:58:09.447Z,2.60
2023-05-14T16:01:11.516Z,2.50
2023-05-14T16:04:13.203Z,2.42
2023-05-14T16:07:15.268Z,2.70
2023-05-14T16:10:16.814Z,2.75
2023-05-14T16:13:18.413Z,2.28
2023-05-14T16:16:22.809Z,2.67
2023-05-14T16:19:24.509Z,2.28
2023-05-14T16:22:26.787Z,2.30
2023-05-14T16:25:30.510Z,2.45
2023-05-14T16:28:32.381Z,2.35
2023-05-14T16:31:34.085Z,2.50
2023-05-14T16:34:35.814Z,2.28
2023-05-14T16:37:37.418Z,2.45
2023-05-14T16:40:39.071Z,2.35
2023-05-14T16:43:40.818Z,2.22
2023-05-14T16:46:42.499Z,2.58
2023-05-14T16:49:44.022Z,2.60
2023-05-14T16:52:47.646Z,2.50
2023-05-14T16:55:49.581Z,2.65
2023-05-14T16:58:51.284Z,2.45
2023-05-14T17:01:53.028Z,2.58
2023-05-14T17:04:55.307Z,2.38
2023-05-14T17:07:56.927Z,2.30
2023-05-14T17:10:58.594Z,2.10
2023-05-14T17:14:00.145Z,2.00
2023-05-14T17:17:02.075Z,2.30
2023-05-14T17:23:07.435Z,2.53
2023-05-14T17:26:09.106Z,2.17
2023-05-14T17:29:10.722Z,2.58
2023-05-14T17:32:12.417Z,2.25
2023-05-14T17:35:14.007Z,2.40
2023-05-14T17:38:15.617Z,2.33
2023-05-14T17:41:17.300Z,2.25
2023-05-14T17:44:18.970Z,2.40
2023-05-14T17:47:21.041Z,2.28
2023-05-14T17:50:22.642Z,2.58
2023-05-14T17:53:24.248Z,2.58
2023-05-14T17:56:26.316Z,2.80
2023-05-14T17:59:27.937Z,2.70
2023-05-14T18:02:29.575Z,2.45
2023-05-14T18:05:31.810Z,2.78
2023-05-14T18:08:33.419Z,2.83
2023-05-14T18:11:35.571Z,2.80
2023-05-14T18:14:37.116Z,2.70
2023-05-14T18:17:38.775Z,2.72
2023-05-14T18:20:40.495Z,2.40
2023-05-14T18:23:42.012Z,2.53
2023-05-14T18:26:43.538Z,2.47
2023-05-14T18:29:45.351Z,2.63
2023-05-14T18:32:47.169Z,2.60
2023-05-14T18:35:49.103Z,2.45
2023-05-14T18:38:50.636Z,2.55
2023-05-14T18:41:52.290Z,2.50
2023-05-14T18:44:54.137Z,2.40
2023-05-14T18:47:56.255Z,2.50
2023-05-14T18:50:57.820Z,2.38
2023-05-14T18:53:59.363Z,2.50
2023-05-14T18:57:01.656Z,2.33
2023-05-14T19:00:04.026Z,2.60
2023-05-14T19:03:05.713Z,2.45
2023-05-14T19:06:07.864Z,2.55
2023-05-14T19:09:10.845Z,2.40
2023-05-14T19:12:12.516Z,2.33
2023-05-14T19:15:14.047Z,2.38
2023-05-14T19:18:17.571Z,2.47
2023-05-14T19:21:19.233Z,2.50
2023-05-14T19:24:20.877Z,2.30
2023-05-14T19:27:24.077Z,2.30
2023-05-14T19:30:25.632Z,2.47
2023-05-14T19:33:27.894Z,2.47
2023-05-14T19:36:31.614Z,2.38
2023-05-14T19:39:33.246Z,2.50
2023-05-14T19:42:34.826Z,2.35
2023-05-14T19:45:39.370Z,2.38
2023-05-14T19:48:41.268Z,2.60
2023-05-14T19:51:42.782Z,2.25
2023-05-14T19:54:44.320Z,2.50
2023-05-14T19:57:45.885Z,2.55
2023-05-14T20:00:50.996Z,2.42
2023-05-14T20:03:52.598Z,2.70
2023-05-14T20:06:54.250Z,2.75
2023-05-14T20:09:55.752Z,2.70
2023-05-14T20:12:57.314Z,3.00
2023-05-14T20:15:59.757Z,3.00
2023-05-14T20:19:01.519Z,2.65
2023-05-14T20:22:05.432Z,3.03
2023-05-14T20:25:07.571Z,3.10
2023-05-14T20:28:09.064Z,3.03
2023-05-14T20:31:10.622Z,3.10
2023-05-14T20:34:12.213Z,3.10
2023-05-14T20:37:13.737Z,2.90
2023-05-14T20:40:15.674Z,2.88
2023-05-14T20:43:17.389Z,2.97
2023-05-14T20:46:19.111Z,3.25
2023-05-14T20:49:20.784Z,2.60
2023-05-14T20:52:22.540Z,2.72
2023-05-14T20:55:24.322Z,2.90
2023-05-14T20:58:26.032Z,2.85
2023-05-14T21:01:27.660Z,2.83
2023-05-14T21:04:29.297Z,2.70
2023-05-14T21:07:31.757Z,2.95
2023-05-14T21:10:33.348Z,3.03
2023-05-14T21:13:34.929Z,2.88
2023-05-14T21:16:36.566Z,3.05
2023-05-14T21:19:38.216Z,3.00
2023-05-14T21:22:39.876Z,2.90
2023-05-14T21:25:41.537Z,2.72
2023-05-14T21:28:43.067Z,3.08
2023-05-14T21:31:44.753Z,3.10
2023-05-14T21:34:46.407Z,2.92
2023-05-14T21:37:47.898Z,2.90
2023-05-14T21:40:49.514Z,3.30
2023-05-14T21:43:51.060Z,2.95
2023-05-14T21:46:52.570Z,2.90
2023-05-14T21:49:54.210Z,3.00
2023-05-14T21:52:55.724Z,3.05
2023-05-14T21:55:57.386Z,3.03
2023-05-14T21:58:59.495Z,3.28
2023-05-14T22:05:05.794Z,3.20
2023-05-14T22:08:07.530Z,3.20
2023-05-14T22:11:09.069Z,3.63
2023-05-14T22:14:10.742Z,2.78
2023-05-14T22:17:12.730Z,3.10
2023-05-14T22:20:14.547Z,2.90
2023-05-14T22:23:16.190Z,3.00
2023-05-14T22:26:17.817Z,2.95
2023-05-14T22:29:19.412Z,2.83
2023-05-14T22:32:21.231Z,2.90
2023-05-14T22:35:22.884Z,2.83
2023-05-14T22:38:24.599Z,3.00
2023-05-14T22:41:26.661Z,3.22
2023-05-14T22:44:30.064Z,3.40
2023-05-14T22:47:31.915Z,3.20
2023-05-14T22:50:33.597Z,3.40
2023-05-14T22:53:35.294Z,2.92
2023-05-14T22:56:37.877Z,2.85
2023-05-14T22:59:39.535Z,2.75
2023-05-14T23:02:41.219Z,3.03
2023-05-14T23:05:42.795Z,2.90
2023-05-14T23:08:44.324Z,2.97
2023-05-14T23:11:46.232Z,3.05
2023-05-14T23:14:47.825Z,2.95
2023-05-14T23:17:49.517Z,2.92
2023-05-14T23:20:51.118Z,3.08
2023-05-14T23:23:52.675Z,3.10
2023-05-14T23:26:54.392Z,2.58
2023-05-14T23:29:55.973Z,3.47
2023-05-14T23:32:57.623Z,3.28
2023-05-14T23:35:59.279Z,2.83
2023-05-14T23:39:01.003Z,3.05
2023-05-14T23:42:02.650Z,2.85
2023-05-14T23:45:05.388Z,2.83
2023-05-14T23:48:07.255Z,2.70
2023-05-14T23:51:08.970Z,2.97
2023-05-14T23:54:10.720Z,3.17
2023-05-14T23:57:14.499Z,3.08
